createdAt,value
2019-04-30T00:00:30.443Z,41.25
2019-04-30T00:01:31.368Z,38.99
2019-04-30T00:02:35.994Z,47.21
2019-04-30T00:03:32.672Z,55.75
2019-04-30T00:04:37.621Z,40.12
2019-04-30T00:05:31.943Z,41.41
2019-04-30T00:06:34.353Z,38.99
2019-04-30T00:07:33.203Z,39.80
2019-04-30T00:08:35.493Z,41.89
2019-04-30T00:09:35.167Z,39.96
2019-04-30T00:10:39.643Z,39.32
2019-04-30T00:11:35.855Z,49.47
2019-04-30T00:12:38.029Z,50.11
2019-04-30T00:13:35.906Z,38.67
2019-04-30T00:14:37.602Z,38.99
2019-04-30T00:15:35.683Z,39.16
2019-04-30T00:16:36.352Z,38.67
2019-04-30T00:17:35.891Z,38.67
2019-04-30T00:18:35.892Z,45.92
2019-04-30T00:19:35.907Z,38.83
2019-04-30T00:20:37.246Z,42.70
2019-04-30T00:21:36.142Z,38.83
2019-04-30T00:22:34.490Z,39.16
2019-04-30T00:23:35.960Z,38.99
2019-04-30T00:24:35.588Z,38.51
2019-04-30T00:25:35.593Z,40.12
2019-04-30T00:26:35.449Z,39.48
2019-04-30T00:27:35.959Z,41.73
2019-04-30T00:28:35.378Z,45.44
2019-04-30T00:29:36.279Z,39.32
2019-04-30T00:30:39.355Z,40.93
2019-04-30T00:31:36.532Z,39.80
2019-04-30T00:32:39.360Z,39.32
2019-04-30T00:33:38.009Z,48.50
2019-04-30T00:34:39.344Z,56.40
2019-04-30T00:35:37.480Z,38.99
2019-04-30T00:36:37.483Z,41.89
2019-04-30T00:37:37.768Z,72.35
2019-04-30T00:38:37.938Z,42.86
2019-04-30T00:39:38.178Z,39.96
2019-04-30T00:40:37.322Z,41.73
2019-04-30T00:41:39.847Z,39.80
2019-04-30T00:42:39.622Z,40.77
2019-04-30T00:43:46.408Z,39.32
2019-04-30T00:44:38.905Z,38.83
2019-04-30T00:45:40.045Z,45.12
2019-04-30T00:46:40.262Z,39.16
2019-04-30T00:47:39.498Z,46.89
2019-04-30T00:48:40.729Z,44.47
2019-04-30T00:49:39.009Z,44.63
2019-04-30T00:50:39.178Z,40.93
2019-04-30T00:51:39.329Z,39.16
2019-04-30T00:52:39.514Z,38.51
2019-04-30T00:53:39.679Z,45.28
2019-04-30T00:54:39.931Z,44.96
2019-04-30T00:55:44.403Z,38.99
2019-04-30T00:56:42.230Z,41.73
2019-04-30T00:57:43.806Z,49.63
2019-04-30T00:58:41.484Z,44.47
2019-04-30T00:59:46.558Z,44.31
2019-04-30T01:00:41.897Z,42.54
2019-04-30T01:01:43.505Z,52.21
2019-04-30T01:02:43.169Z,50.43
2019-04-30T01:03:46.389Z,38.99
2019-04-30T01:04:45.021Z,49.15
2019-04-30T01:05:44.504Z,42.06
2019-04-30T01:06:43.952Z,39.64
2019-04-30T01:07:48.713Z,40.61
2019-04-30T01:08:46.114Z,38.35
2019-04-30T01:09:46.536Z,39.16
2019-04-30T01:10:46.017Z,40.44
2019-04-30T01:11:46.801Z,42.38
2019-04-30T01:12:49.623Z,46.73
2019-04-30T01:13:50.161Z,44.15
2019-04-30T01:14:45.225Z,38.67
2019-04-30T01:15:43.969Z,38.51
2019-04-30T01:16:44.642Z,42.86
2019-04-30T01:17:45.285Z,39.80
2019-04-30T01:18:45.887Z,40.28
2019-04-30T01:19:45.888Z,40.61
2019-04-30T01:20:46.298Z,43.34
2019-04-30T01:21:46.939Z,40.61
2019-04-30T01:22:45.766Z,38.35
2019-04-30T01:23:51.870Z,38.67
2019-04-30T01:24:47.105Z,38.83
2019-04-30T01:25:49.999Z,40.12
2019-04-30T01:26:48.585Z,38.67
2019-04-30T01:27:46.747Z,45.92
2019-04-30T01:28:45.894Z,38.35
2019-04-30T01:29:46.045Z,43.67
2019-04-30T01:30:46.201Z,38.99
2019-04-30T01:31:46.349Z,40.61
2019-04-30T01:32:52.114Z,44.47
2019-04-30T01:33:48.935Z,39.48
2019-04-30T01:34:49.985Z,38.99
2019-04-30T01:35:48.967Z,39.16
2019-04-30T01:36:52.074Z,38.99
2019-04-30T01:37:48.795Z,40.28
2019-04-30T01:38:51.074Z,51.40
2019-04-30T01:39:49.776Z,45.28
2019-04-30T01:40:51.165Z,44.15
2019-04-30T01:41:49.110Z,54.79
2019-04-30T01:42:51.624Z,44.47
2019-04-30T01:43:48.726Z,47.70
2019-04-30T01:44:53.527Z,53.98
2019-04-30T01:45:49.736Z,44.47
2019-04-30T01:46:51.641Z,53.50
2019-04-30T01:47:50.027Z,55.11
2019-04-30T01:48:51.960Z,54.62
2019-04-30T01:49:50.287Z,39.48
2019-04-30T01:50:49.461Z,41.73
2019-04-30T01:51:52.828Z,46.57
2019-04-30T01:52:50.772Z,42.22
2019-04-30T01:53:49.900Z,47.70
2019-04-30T01:54:50.074Z,44.63
2019-04-30T01:55:50.262Z,42.22
2019-04-30T01:56:50.459Z,56.40
2019-04-30T01:57:50.642Z,39.32
2019-04-30T01:58:50.829Z,39.64
2019-04-30T01:59:50.977Z,39.96
2019-04-30T02:00:51.170Z,44.15
2019-04-30T02:01:51.360Z,44.63
2019-04-30T02:02:51.539Z,42.22
2019-04-30T02:03:51.727Z,44.79
2019-04-30T02:04:51.926Z,45.76
2019-04-30T02:05:52.116Z,50.60
2019-04-30T02:06:52.328Z,39.32
2019-04-30T02:07:52.538Z,53.33
2019-04-30T02:08:52.733Z,45.92
2019-04-30T02:09:52.932Z,40.44
2019-04-30T02:10:53.120Z,39.16
2019-04-30T02:11:53.336Z,38.83
2019-04-30T02:12:53.512Z,39.16
2019-04-30T02:13:53.686Z,38.99
2019-04-30T02:14:53.859Z,51.24
2019-04-30T02:15:54.045Z,54.95
2019-04-30T02:16:55.257Z,46.41
2019-04-30T02:17:54.435Z,39.64
2019-04-30T02:18:54.585Z,39.48
2019-04-30T02:19:56.990Z,38.99
2019-04-30T02:20:55.947Z,40.61
2019-04-30T02:21:55.076Z,59.46
2019-04-30T02:22:55.240Z,65.90
2019-04-30T02:23:55.404Z,66.39
2019-04-30T02:24:55.570Z,41.09
2019-04-30T02:25:55.741Z,41.25
2019-04-30T02:26:55.873Z,58.17
2019-04-30T02:27:56.066Z,72.19
2019-04-30T02:28:56.256Z,42.38
2019-04-30T02:29:56.454Z,40.61
2019-04-30T02:30:56.644Z,42.86
2019-04-30T02:31:56.831Z,45.92
2019-04-30T02:33:00.084Z,40.28
2019-04-30T02:33:57.178Z,51.56
2019-04-30T02:34:59.686Z,42.06
2019-04-30T02:36:03.265Z,45.76
2019-04-30T02:36:59.575Z,68.64
2019-04-30T02:38:00.176Z,52.53
2019-04-30T02:39:02.416Z,56.88
2019-04-30T02:40:00.881Z,90.40
2019-04-30T02:40:59.725Z,93.13
2019-04-30T02:42:00.004Z,99.10
2019-04-30T02:43:01.764Z,96.20
2019-04-30T02:44:00.063Z,98.61
2019-04-30T02:45:00.092Z,101.03
2019-04-30T02:46:00.296Z,96.04
2019-04-30T02:47:00.380Z,97.16
2019-04-30T02:48:00.591Z,100.06
2019-04-30T02:48:59.970Z,99.10
2019-04-30T02:50:14.156Z,100.06
2019-04-30T02:51:02.220Z,101.51
2019-04-30T02:52:00.374Z,101.67
2019-04-30T02:53:02.771Z,103.29
2019-04-30T02:54:00.792Z,102.80
2019-04-30T02:55:00.988Z,103.12
2019-04-30T02:56:02.617Z,102.00
2019-04-30T02:57:02.331Z,100.87
2019-04-30T02:58:01.473Z,101.35
2019-04-30T02:59:03.862Z,102.80
2019-04-30T03:00:02.935Z,102.64
2019-04-30T03:01:02.090Z,102.64
2019-04-30T03:02:02.269Z,100.55
2019-04-30T03:03:02.417Z,100.39
2019-04-30T03:04:02.603Z,102.96
2019-04-30T03:05:02.789Z,100.71
2019-04-30T03:06:02.945Z,104.74
2019-04-30T03:07:03.113Z,100.55
2019-04-30T03:08:03.299Z,100.06
2019-04-30T03:09:03.471Z,100.22
2019-04-30T03:10:03.634Z,104.41
2019-04-30T03:11:03.849Z,92.01
2019-04-30T03:12:04.031Z,89.59
2019-04-30T03:13:04.208Z,91.68
2019-04-30T03:14:04.393Z,92.81
2019-04-30T03:15:04.607Z,98.29
2019-04-30T03:16:04.715Z,103.29
2019-04-30T03:17:04.919Z,99.90
2019-04-30T03:18:05.034Z,100.06
2019-04-30T03:19:05.204Z,99.58
2019-04-30T03:20:05.406Z,103.29
2019-04-30T03:21:05.570Z,101.51
2019-04-30T03:22:05.758Z,99.26
2019-04-30T03:23:05.940Z,104.58
2019-04-30T03:24:06.123Z,100.71
2019-04-30T03:25:06.265Z,103.12
2019-04-30T03:26:06.418Z,101.35
2019-04-30T03:27:09.524Z,97.16
2019-04-30T03:28:06.726Z,78.31
2019-04-30T03:29:06.869Z,76.54
2019-04-30T03:30:11.661Z,75.73
2019-04-30T03:31:11.982Z,81.37
2019-04-30T03:32:12.430Z,80.57
2019-04-30T03:33:12.481Z,77.83
2019-04-30T03:34:16.934Z,85.24
2019-04-30T03:35:12.773Z,69.77
2019-04-30T03:36:12.480Z,74.28
2019-04-30T03:37:10.105Z,73.48
2019-04-30T03:38:09.747Z,73.96
2019-04-30T03:39:10.889Z,73.15
2019-04-30T03:40:10.267Z,72.83
2019-04-30T03:41:09.943Z,77.83
2019-04-30T03:42:09.962Z,58.49
2019-04-30T03:43:10.485Z,74.28
2019-04-30T03:44:18.493Z,74.12
2019-04-30T03:45:11.601Z,72.03
2019-04-30T03:46:10.241Z,74.12
2019-04-30T03:47:11.236Z,73.96
2019-04-30T03:48:10.439Z,59.78
2019-04-30T03:49:13.156Z,52.37
2019-04-30T03:50:10.535Z,60.10
2019-04-30T03:51:10.865Z,52.53
2019-04-30T03:52:13.448Z,53.82
2019-04-30T03:53:12.129Z,76.22
2019-04-30T03:54:11.281Z,54.46
2019-04-30T03:55:11.447Z,53.82
2019-04-30T03:56:11.614Z,54.95
2019-04-30T03:57:11.781Z,67.03
2019-04-30T03:58:11.978Z,56.72
2019-04-30T03:59:12.181Z,78.31
2019-04-30T04:00:12.348Z,70.09
2019-04-30T04:01:12.486Z,50.43
2019-04-30T04:02:13.014Z,50.60
2019-04-30T04:03:13.981Z,77.34
2019-04-30T04:04:13.050Z,75.25
2019-04-30T04:05:13.207Z,67.35
2019-04-30T04:06:13.379Z,71.54
2019-04-30T04:07:14.560Z,61.87
2019-04-30T04:08:13.706Z,72.83
2019-04-30T04:09:13.872Z,70.58
2019-04-30T04:10:14.044Z,54.14
2019-04-30T04:11:14.184Z,53.33
2019-04-30T04:12:14.364Z,73.32
2019-04-30T04:13:14.506Z,74.60
2019-04-30T04:14:14.699Z,73.15
2019-04-30T04:15:14.847Z,67.03
2019-04-30T04:16:15.010Z,63.33
2019-04-30T04:17:15.171Z,68.80
2019-04-30T04:18:16.325Z,68.32
2019-04-30T04:19:15.488Z,70.58
2019-04-30T04:20:15.638Z,73.32
2019-04-30T04:21:17.090Z,59.14
2019-04-30T04:22:16.962Z,62.04
2019-04-30T04:23:16.197Z,52.85
2019-04-30T04:24:20.187Z,73.96
2019-04-30T04:25:20.434Z,76.70
2019-04-30T04:26:16.716Z,74.12
2019-04-30T04:27:19.176Z,57.85
2019-04-30T04:28:20.072Z,75.57
2019-04-30T04:29:19.632Z,84.59
2019-04-30T04:30:20.081Z,72.67
2019-04-30T04:31:19.283Z,69.77
2019-04-30T04:32:23.672Z,74.28
2019-04-30T04:33:19.926Z,76.70
2019-04-30T04:34:19.756Z,73.48
2019-04-30T04:35:19.915Z,53.33
2019-04-30T04:36:20.043Z,68.00
2019-04-30T04:37:20.374Z,55.43
2019-04-30T04:38:20.507Z,61.87
2019-04-30T04:39:20.408Z,72.03
2019-04-30T04:40:20.991Z,54.46
2019-04-30T04:41:20.290Z,57.20
2019-04-30T04:42:19.801Z,72.83
2019-04-30T04:43:20.588Z,70.42
2019-04-30T04:44:20.553Z,71.87
2019-04-30T04:45:20.971Z,72.99
2019-04-30T04:46:20.675Z,71.70
2019-04-30T04:47:21.284Z,72.19
2019-04-30T04:48:23.287Z,60.26
2019-04-30T04:49:21.609Z,74.44
2019-04-30T04:50:21.851Z,73.48
2019-04-30T04:51:36.601Z,64.29
2019-04-30T04:52:23.224Z,71.22
2019-04-30T04:53:21.341Z,55.11
2019-04-30T04:54:21.498Z,55.43
2019-04-30T04:55:22.353Z,63.81
2019-04-30T04:56:22.845Z,72.83
2019-04-30T04:57:22.943Z,73.48
2019-04-30T04:58:23.074Z,49.47
2019-04-30T04:59:22.199Z,74.44
2019-04-30T05:00:22.348Z,75.89
2019-04-30T05:01:22.625Z,78.47
2019-04-30T05:02:22.785Z,71.22
2019-04-30T05:03:22.928Z,61.07
2019-04-30T05:04:23.059Z,72.99
2019-04-30T05:05:23.225Z,73.32
2019-04-30T05:06:23.485Z,61.55
2019-04-30T05:07:23.620Z,74.44
2019-04-30T05:08:23.736Z,62.04
2019-04-30T05:09:23.893Z,73.80
2019-04-30T05:10:24.028Z,64.61
2019-04-30T05:11:24.289Z,72.35
2019-04-30T05:12:24.389Z,53.82
2019-04-30T05:13:24.605Z,71.70
2019-04-30T05:14:24.818Z,73.32
2019-04-30T05:15:26.049Z,51.88
2019-04-30T05:16:25.372Z,74.93
2019-04-30T05:17:25.473Z,74.77
2019-04-30T05:18:25.700Z,48.66
2019-04-30T05:19:25.922Z,71.06
2019-04-30T05:20:26.157Z,64.45
2019-04-30T05:21:26.396Z,74.28
2019-04-30T05:22:26.485Z,72.51
2019-04-30T05:23:26.688Z,60.26
2019-04-30T05:24:28.583Z,71.87
2019-04-30T05:25:27.118Z,67.84
2019-04-30T05:26:28.690Z,61.71
2019-04-30T05:27:27.525Z,66.06
2019-04-30T05:28:29.961Z,75.09
2019-04-30T05:29:28.948Z,50.76
2019-04-30T05:30:29.602Z,74.12
2019-04-30T05:31:29.237Z,72.99
2019-04-30T05:32:29.307Z,73.48
2019-04-30T05:33:29.598Z,61.55
2019-04-30T05:34:28.886Z,62.84
2019-04-30T05:35:31.068Z,74.93
2019-04-30T05:36:30.217Z,72.99
2019-04-30T05:37:29.484Z,72.03
2019-04-30T05:38:31.378Z,75.41
2019-04-30T05:39:29.795Z,73.80
2019-04-30T05:40:29.943Z,72.51
2019-04-30T05:41:30.164Z,76.38
2019-04-30T05:42:31.322Z,74.28
2019-04-30T05:43:30.472Z,65.90
2019-04-30T05:44:30.630Z,73.80
2019-04-30T05:45:30.772Z,74.28
2019-04-30T05:46:30.949Z,67.35
2019-04-30T05:47:31.102Z,77.67
2019-04-30T05:48:31.266Z,74.93
2019-04-30T05:49:31.428Z,78.96
2019-04-30T05:50:31.579Z,56.07
2019-04-30T05:51:31.733Z,71.38
2019-04-30T05:52:31.982Z,72.19
2019-04-30T05:53:32.168Z,72.51
2019-04-30T05:54:32.306Z,66.71
2019-04-30T05:55:32.479Z,71.06
2019-04-30T05:56:32.644Z,70.09
2019-04-30T05:57:32.780Z,88.62
2019-04-30T05:58:32.949Z,74.28
2019-04-30T05:59:33.153Z,72.35
2019-04-30T06:00:33.308Z,74.93
2019-04-30T06:01:33.489Z,75.73
2019-04-30T06:02:34.044Z,75.57
2019-04-30T06:03:34.769Z,69.93
2019-04-30T06:04:34.041Z,70.58
2019-04-30T06:05:34.189Z,57.36
2019-04-30T06:06:34.310Z,70.90
2019-04-30T06:07:34.434Z,65.42
2019-04-30T06:08:34.685Z,73.15
2019-04-30T06:09:34.877Z,71.87
2019-04-30T06:10:35.025Z,77.18
2019-04-30T06:11:35.187Z,73.80
2019-04-30T06:12:35.329Z,79.28
2019-04-30T06:13:35.578Z,72.51
2019-04-30T06:14:46.644Z,67.51
2019-04-30T06:15:39.089Z,73.48
2019-04-30T06:16:35.977Z,73.48
2019-04-30T06:17:36.086Z,75.09
2019-04-30T06:18:36.224Z,53.17
2019-04-30T06:19:36.373Z,74.77
2019-04-30T06:20:38.529Z,75.09
2019-04-30T06:21:36.740Z,72.67
2019-04-30T06:22:38.528Z,73.96
2019-04-30T06:23:37.108Z,65.90
2019-04-30T06:24:37.231Z,53.50
2019-04-30T06:25:55.272Z,73.96
2019-04-30T06:26:39.534Z,80.89
2019-04-30T06:27:38.799Z,76.86
2019-04-30T06:28:39.061Z,73.80
2019-04-30T06:29:39.151Z,69.61
2019-04-30T06:30:39.636Z,70.90
2019-04-30T06:31:40.126Z,71.06
2019-04-30T06:32:39.602Z,82.82
2019-04-30T06:33:39.710Z,75.57
2019-04-30T06:34:39.490Z,67.51
2019-04-30T06:35:40.216Z,77.83
2019-04-30T06:36:50.897Z,73.96
2019-04-30T06:37:41.570Z,74.60
2019-04-30T06:38:39.805Z,71.54
2019-04-30T06:39:39.958Z,68.64
2019-04-30T06:40:40.125Z,72.19
2019-04-30T06:41:41.062Z,65.10
2019-04-30T06:42:40.465Z,50.43
2019-04-30T06:43:40.609Z,72.19
2019-04-30T06:44:41.876Z,76.38
2019-04-30T06:45:41.874Z,72.35
2019-04-30T06:46:41.132Z,72.67
2019-04-30T06:47:41.263Z,73.96
2019-04-30T06:48:41.912Z,71.87
2019-04-30T06:49:42.618Z,71.06
2019-04-30T06:50:41.852Z,63.81
2019-04-30T06:51:41.983Z,72.83
2019-04-30T06:52:53.984Z,71.87
2019-04-30T06:53:43.289Z,73.80
2019-04-30T06:54:42.397Z,74.12
2019-04-30T06:55:42.565Z,71.70
2019-04-30T06:56:42.719Z,83.79
2019-04-30T06:57:42.871Z,72.19
2019-04-30T06:58:43.041Z,84.59
2019-04-30T06:59:43.195Z,70.74
2019-04-30T07:00:43.346Z,58.81
2019-04-30T07:01:43.517Z,68.80
2019-04-30T07:02:43.696Z,71.54
2019-04-30T07:03:43.843Z,77.18
2019-04-30T07:04:43.978Z,78.79
2019-04-30T07:05:44.119Z,73.96
2019-04-30T07:06:45.328Z,73.96
2019-04-30T07:07:44.506Z,73.15
2019-04-30T07:08:47.066Z,75.89
2019-04-30T07:09:52.716Z,76.22
2019-04-30T07:10:55.029Z,77.83
2019-04-30T07:11:49.224Z,75.57
2019-04-30T07:12:45.302Z,62.68
2019-04-30T07:13:45.488Z,75.89
2019-04-30T07:14:45.632Z,74.12
2019-04-30T07:15:45.786Z,67.35
2019-04-30T07:16:45.939Z,69.13
2019-04-30T07:17:46.115Z,55.75
2019-04-30T07:18:46.291Z,72.83
2019-04-30T07:19:54.286Z,70.58
2019-04-30T07:20:48.749Z,61.07
2019-04-30T07:21:46.749Z,74.28
2019-04-30T07:22:52.531Z,71.70
2019-04-30T07:23:49.022Z,72.35
2019-04-30T07:24:49.636Z,64.29
2019-04-30T07:25:51.386Z,74.93
2019-04-30T07:26:49.029Z,73.96
2019-04-30T07:27:50.489Z,71.22
2019-04-30T07:28:54.273Z,60.42
2019-04-30T07:29:50.172Z,73.48
2019-04-30T07:31:00.050Z,75.41
2019-04-30T07:31:51.685Z,63.33
2019-04-30T07:32:48.972Z,57.69
2019-04-30T07:33:53.451Z,72.51
2019-04-30T07:34:50.189Z,65.42
2019-04-30T07:35:49.853Z,50.27
2019-04-30T07:37:10.420Z,71.06
2019-04-30T07:37:54.519Z,74.60
2019-04-30T07:38:56.126Z,75.09
2019-04-30T07:39:51.905Z,68.64
2019-04-30T07:40:50.038Z,58.49
2019-04-30T07:41:50.251Z,75.73
2019-04-30T07:42:50.435Z,63.97
2019-04-30T07:43:50.629Z,69.77
2019-04-30T07:44:51.796Z,61.23
2019-04-30T07:45:50.930Z,72.83
2019-04-30T07:46:51.119Z,65.74
2019-04-30T07:47:51.298Z,67.68
2019-04-30T07:48:51.448Z,55.75
2019-04-30T07:49:55.059Z,74.93
2019-04-30T07:50:52.842Z,76.05
2019-04-30T07:51:52.887Z,83.14
2019-04-30T07:53:05.558Z,72.03
2019-04-30T07:53:54.395Z,65.90
2019-04-30T07:54:52.514Z,70.42
2019-04-30T07:55:52.679Z,71.38
2019-04-30T07:56:52.866Z,52.53
2019-04-30T07:57:53.031Z,70.74
2019-04-30T07:58:53.176Z,73.80
2019-04-30T07:59:53.404Z,55.11
2019-04-30T08:00:56.282Z,54.14
2019-04-30T08:02:04.097Z,64.78
2019-04-30T08:02:56.013Z,70.09
2019-04-30T08:03:54.594Z,70.09
2019-04-30T08:04:54.405Z,70.42
2019-04-30T08:05:54.696Z,55.27
2019-04-30T08:06:54.844Z,65.90
2019-04-30T08:07:54.992Z,71.87
2019-04-30T08:08:59.815Z,71.70
2019-04-30T08:09:58.972Z,74.77
2019-04-30T08:10:55.529Z,72.51
2019-04-30T08:11:55.685Z,70.09
2019-04-30T08:12:56.063Z,70.58
2019-04-30T08:13:56.316Z,72.35
2019-04-30T08:14:56.198Z,68.64
2019-04-30T08:15:56.367Z,71.38
2019-04-30T08:16:58.562Z,71.38
2019-04-30T08:18:03.538Z,52.21
2019-04-30T08:18:59.236Z,68.96
2019-04-30T08:19:58.745Z,50.92
2019-04-30T08:20:58.662Z,58.97
2019-04-30T08:21:58.626Z,72.99
2019-04-30T08:23:07.062Z,69.13
2019-04-30T08:24:01.096Z,69.45
2019-04-30T08:24:58.904Z,73.48
2019-04-30T08:25:58.740Z,60.59
2019-04-30T08:27:01.160Z,71.06
2019-04-30T08:27:59.105Z,79.60
2019-04-30T08:28:59.866Z,73.32
2019-04-30T08:29:59.815Z,65.26
2019-04-30T08:30:59.069Z,64.45
2019-04-30T08:31:59.404Z,67.35
2019-04-30T08:33:00.364Z,77.99
2019-04-30T08:33:59.612Z,73.96
2019-04-30T08:35:01.171Z,77.50
2019-04-30T08:36:00.956Z,52.69
2019-04-30T08:37:12.465Z,72.83
2019-04-30T08:38:01.264Z,71.06
2019-04-30T08:39:00.493Z,69.93
2019-04-30T08:40:03.380Z,78.79
2019-04-30T08:41:00.942Z,72.19
2019-04-30T08:42:02.011Z,75.41
2019-04-30T08:43:01.166Z,78.96
2019-04-30T08:44:01.314Z,71.06
2019-04-30T08:45:01.519Z,70.90
2019-04-30T08:46:01.701Z,76.22
2019-04-30T08:47:01.878Z,72.51
2019-04-30T08:48:02.040Z,76.70
2019-04-30T08:49:02.240Z,75.73
2019-04-30T08:50:03.036Z,72.19
2019-04-30T08:51:02.548Z,72.99
2019-04-30T08:52:02.732Z,70.74
2019-04-30T08:53:03.080Z,72.67
2019-04-30T08:54:03.143Z,70.42
2019-04-30T08:55:13.362Z,70.74
2019-04-30T08:56:05.537Z,70.25
2019-04-30T08:57:03.777Z,53.82
2019-04-30T08:58:09.830Z,51.72
2019-04-30T08:59:06.162Z,65.58
2019-04-30T09:00:04.287Z,70.90
2019-04-30T09:01:04.492Z,69.13
2019-04-30T09:02:15.245Z,63.00
2019-04-30T09:03:06.893Z,70.90
2019-04-30T09:04:07.488Z,69.61
2019-04-30T09:05:05.330Z,72.67
2019-04-30T09:06:05.524Z,54.14
2019-04-30T09:07:05.691Z,76.22
2019-04-30T09:08:05.883Z,69.13
2019-04-30T09:09:06.062Z,77.67
2019-04-30T09:10:06.232Z,76.38
2019-04-30T09:11:06.399Z,76.86
2019-04-30T09:12:06.554Z,68.96
2019-04-30T09:13:06.713Z,70.25
2019-04-30T09:14:08.502Z,72.35
2019-04-30T09:15:09.076Z,64.61
2019-04-30T09:16:09.135Z,70.42
2019-04-30T09:17:09.160Z,71.70
2019-04-30T09:18:12.451Z,66.71
2019-04-30T09:19:09.831Z,70.09
2019-04-30T09:20:09.168Z,70.58
2019-04-30T09:21:09.194Z,72.19
2019-04-30T09:22:14.903Z,66.23
2019-04-30T09:23:11.283Z,47.37
2019-04-30T09:24:09.551Z,65.26
2019-04-30T09:25:09.771Z,56.56
2019-04-30T09:26:08.926Z,69.77
2019-04-30T09:27:10.801Z,64.45
2019-04-30T09:28:10.243Z,49.95
2019-04-30T09:29:09.452Z,69.61
2019-04-30T09:30:10.585Z,62.84
2019-04-30T09:31:09.724Z,70.42
2019-04-30T09:32:09.890Z,68.48
2019-04-30T09:33:11.224Z,55.91
2019-04-30T09:34:17.548Z,65.74
2019-04-30T09:35:12.418Z,62.52
2019-04-30T09:36:10.575Z,64.29
2019-04-30T09:37:10.730Z,67.35
2019-04-30T09:38:10.912Z,62.84
2019-04-30T09:39:11.087Z,48.34
2019-04-30T09:40:17.968Z,76.54
2019-04-30T09:41:13.517Z,55.75
2019-04-30T09:42:11.649Z,53.17
2019-04-30T09:43:11.846Z,66.71
2019-04-30T09:44:12.060Z,62.04
2019-04-30T09:45:12.217Z,66.23
2019-04-30T09:46:19.168Z,64.45
2019-04-30T09:47:14.520Z,69.45
2019-04-30T09:48:12.680Z,78.79
2019-04-30T09:49:12.850Z,53.82
2019-04-30T09:50:13.033Z,71.22
2019-04-30T09:51:13.668Z,66.23
2019-04-30T09:52:13.498Z,74.28
2019-04-30T09:53:13.606Z,74.28
2019-04-30T09:54:15.146Z,75.73
2019-04-30T09:55:13.957Z,69.13
2019-04-30T09:56:14.124Z,56.40
2019-04-30T09:57:14.274Z,71.38
2019-04-30T09:58:17.605Z,72.83
2019-04-30T09:59:16.573Z,63.97
2019-04-30T10:00:14.800Z,68.64
2019-04-30T10:01:14.980Z,81.37
2019-04-30T10:02:15.147Z,83.31
2019-04-30T10:03:15.904Z,84.59
2019-04-30T10:04:15.716Z,82.98
2019-04-30T10:05:16.957Z,84.11
2019-04-30T10:06:15.754Z,83.79
2019-04-30T10:07:15.918Z,72.19
2019-04-30T10:08:16.074Z,67.51
2019-04-30T10:09:16.276Z,69.77
2019-04-30T10:10:16.419Z,68.80
2019-04-30T10:11:16.624Z,55.59
2019-04-30T10:12:16.773Z,52.21
2019-04-30T10:13:16.952Z,60.42
2019-04-30T10:14:17.127Z,72.19
2019-04-30T10:15:18.919Z,67.03
2019-04-30T10:16:19.557Z,63.49
2019-04-30T10:17:17.644Z,76.38
2019-04-30T10:18:17.795Z,76.22
2019-04-30T10:19:19.159Z,72.19
2019-04-30T10:20:18.110Z,69.45
2019-04-30T10:21:19.061Z,70.90
2019-04-30T10:22:19.559Z,67.51
2019-04-30T10:23:19.423Z,72.19
2019-04-30T10:24:19.874Z,71.38
2019-04-30T10:25:19.062Z,60.91
2019-04-30T10:26:19.209Z,57.36
2019-04-30T10:27:19.463Z,50.27
2019-04-30T10:28:19.735Z,67.35
2019-04-30T10:29:20.693Z,68.80
2019-04-30T10:30:19.871Z,64.13
2019-04-30T10:31:20.930Z,67.84
2019-04-30T10:32:21.265Z,67.19
2019-04-30T10:33:20.392Z,63.81
2019-04-30T10:34:20.541Z,48.82
2019-04-30T10:35:20.696Z,57.04
2019-04-30T10:36:20.908Z,66.87
2019-04-30T10:37:21.097Z,67.68
2019-04-30T10:38:21.256Z,67.51
2019-04-30T10:39:21.881Z,70.90
2019-04-30T10:40:22.602Z,67.35
2019-04-30T10:41:21.763Z,70.25
2019-04-30T10:42:21.940Z,75.89
2019-04-30T10:43:22.173Z,69.61
2019-04-30T10:44:22.207Z,71.54
2019-04-30T10:45:22.405Z,57.04
2019-04-30T10:46:22.571Z,74.12
2019-04-30T10:47:22.761Z,73.32
2019-04-30T10:48:22.980Z,64.45
2019-04-30T10:49:23.065Z,69.93
2019-04-30T10:50:23.409Z,65.58
2019-04-30T10:51:23.489Z,64.94
2019-04-30T10:52:23.688Z,72.35
2019-04-30T10:53:23.905Z,61.55
2019-04-30T10:54:26.485Z,67.68
2019-04-30T10:55:25.230Z,53.50
2019-04-30T10:56:24.392Z,59.62
2019-04-30T10:57:24.584Z,74.60
2019-04-30T10:58:24.809Z,69.45
2019-04-30T10:59:25.011Z,74.12
2019-04-30T11:00:25.189Z,78.15
2019-04-30T11:01:25.379Z,72.35
2019-04-30T11:02:25.586Z,75.09
2019-04-30T11:03:25.796Z,66.55
2019-04-30T11:04:25.994Z,64.61
2019-04-30T11:05:26.204Z,69.77
2019-04-30T11:06:26.376Z,67.35
2019-04-30T11:07:28.669Z,68.16
2019-04-30T11:08:26.768Z,60.59
2019-04-30T11:09:26.934Z,72.35
2019-04-30T11:10:28.659Z,65.26
2019-04-30T11:11:28.263Z,61.87
2019-04-30T11:12:29.071Z,70.25
2019-04-30T11:13:27.695Z,69.77
2019-04-30T11:14:27.903Z,61.39
2019-04-30T11:15:29.243Z,59.62
2019-04-30T11:16:29.776Z,61.87
2019-04-30T11:17:30.047Z,77.50
2019-04-30T11:18:29.831Z,65.26
2019-04-30T11:19:29.311Z,71.54
2019-04-30T11:20:30.188Z,70.42
2019-04-30T11:21:29.613Z,77.02
2019-04-30T11:22:30.518Z,71.22
2019-04-30T11:23:29.888Z,51.88
2019-04-30T11:24:38.096Z,66.23
2019-04-30T11:25:32.681Z,72.03
2019-04-30T11:26:32.091Z,68.80
2019-04-30T11:27:31.911Z,70.74
2019-04-30T11:28:30.609Z,67.19
2019-04-30T11:29:31.085Z,78.31
2019-04-30T11:30:32.013Z,67.03
2019-04-30T11:31:31.230Z,70.74
2019-04-30T11:32:31.354Z,65.90
2019-04-30T11:33:31.685Z,67.84
2019-04-30T11:34:31.711Z,68.48
2019-04-30T11:35:31.749Z,70.58
2019-04-30T11:36:31.958Z,66.87
2019-04-30T11:37:32.145Z,68.64
2019-04-30T11:38:32.312Z,73.96
2019-04-30T11:39:32.458Z,67.51
2019-04-30T11:40:37.009Z,65.74
2019-04-30T11:41:34.756Z,60.59
2019-04-30T11:42:32.883Z,67.68
2019-04-30T11:43:33.109Z,69.93
2019-04-30T11:44:33.348Z,52.21
2019-04-30T11:45:33.525Z,52.69
2019-04-30T11:46:33.706Z,70.25
2019-04-30T11:47:33.877Z,73.64
2019-04-30T11:48:34.083Z,72.51
2019-04-30T11:49:34.246Z,65.10
2019-04-30T11:50:34.427Z,74.44
2019-04-30T11:51:34.593Z,68.00
2019-04-30T11:52:34.777Z,69.77
2019-04-30T11:53:34.953Z,71.87
2019-04-30T11:54:35.115Z,75.09
2019-04-30T11:55:35.326Z,68.48
2019-04-30T11:56:38.294Z,71.22
2019-04-30T11:57:35.637Z,67.35
2019-04-30T11:58:35.806Z,72.83
2019-04-30T11:59:35.977Z,71.70
2019-04-30T12:00:36.174Z,69.77
2019-04-30T12:01:36.375Z,75.25
2019-04-30T12:02:36.548Z,72.51
2019-04-30T12:03:36.712Z,76.22
2019-04-30T12:04:36.878Z,69.61
2019-04-30T12:05:38.854Z,71.38
2019-04-30T12:06:37.193Z,73.32
2019-04-30T12:07:37.353Z,68.48
2019-04-30T12:08:39.235Z,69.45
2019-04-30T12:09:38.578Z,63.00
2019-04-30T12:10:39.171Z,65.10
2019-04-30T12:11:39.164Z,58.49
2019-04-30T12:12:38.793Z,70.25
2019-04-30T12:13:39.500Z,70.58
2019-04-30T12:14:39.570Z,68.80
2019-04-30T12:15:39.768Z,72.35
2019-04-30T12:16:39.614Z,70.90
2019-04-30T12:17:40.054Z,76.38
2019-04-30T12:18:39.219Z,72.83
2019-04-30T12:19:39.386Z,67.84
2019-04-30T12:20:39.581Z,72.35
2019-04-30T12:21:39.741Z,59.94
2019-04-30T12:22:39.915Z,64.78
2019-04-30T12:23:40.095Z,71.87
2019-04-30T12:24:40.266Z,72.99
2019-04-30T12:25:41.292Z,69.93
2019-04-30T12:26:41.601Z,69.29
2019-04-30T12:27:40.864Z,60.10
2019-04-30T12:28:40.992Z,67.03
2019-04-30T12:29:41.138Z,53.01
2019-04-30T12:30:41.301Z,69.61
2019-04-30T12:31:41.508Z,67.68
2019-04-30T12:32:41.672Z,64.61
2019-04-30T12:33:41.814Z,74.77
2019-04-30T12:34:42.070Z,69.61
2019-04-30T12:35:42.080Z,63.81
2019-04-30T12:36:42.235Z,60.10
2019-04-30T12:37:42.415Z,63.65
2019-04-30T12:38:42.816Z,70.74
2019-04-30T12:39:42.692Z,69.29
2019-04-30T12:40:42.861Z,61.71
2019-04-30T12:41:43.000Z,64.45
2019-04-30T12:42:43.162Z,69.77
2019-04-30T12:43:43.307Z,64.29
2019-04-30T12:44:43.455Z,64.94
2019-04-30T12:45:44.585Z,73.64
2019-04-30T12:46:43.818Z,72.03
2019-04-30T12:47:43.973Z,68.48
2019-04-30T12:48:44.127Z,66.39
2019-04-30T12:49:44.283Z,74.12
2019-04-30T12:50:44.410Z,64.94
2019-04-30T12:51:46.034Z,64.13
2019-04-30T12:52:45.775Z,73.80
2019-04-30T12:53:45.023Z,77.34